Time;durP1;ratioP1;P1;durP2;ratioP2;P2;SDS_P1;SDS_P2;PMS_P1;PMS_P2;Temp;Humidity;BMP_temperature;BMP_pressure;BME280_temperature;BME280_humidity;BME280_pressure;Samples;Min_cycle;Max_cycle;Signal;HPM_P1;HPM_P2
2022/04/02 00:01:29;;;;;;;12.25;6.22;;;;;;;3.23;67.75;100937.25;5078353;28;20040;-63
2022/04/02 00:03:57;;;;;;;13.90;6.13;;;;;;;3.19;67.97;100952.47;5068742;28;20078;-61
2022/04/02 00:06:25;;;;;;;16.20;6.00;;;;;;;3.04;67.43;100941.44;5076304;28;20045;-62
2022/04/02 00:08:54;;;;;;;16.50;6.18;;;;;;;3.13;67.46;100942.59;5057761;28;20049;-61
2022/04/02 00:11:22;;;;;;;12.40;6.30;;;;;;;3.08;67.49;100948.00;5077770;28;20151;-61
2022/04/02 00:13:49;;;;;;;12.10;5.45;;;;;;;3.12;66.85;100941.78;5071219;28;20048;-60
2022/04/02 00:16:16;;;;;;;9.85;5.43;;;;;;;3.08;66.67;100943.41;5077625;28;20087;-60
2022/04/02 00:18:44;;;;;;;9.57;4.60;;;;;;;3.21;65.83;100959.28;5075970;28;20083;-60
2022/04/02 00:21:12;;;;;;;9.70;4.55;;;;;;;3.25;65.40;100943.25;5075712;28;20641;-62
2022/04/02 00:23:39;;;;;;;14.15;5.22;;;;;;;3.19;65.11;100949.75;5069099;28;20433;-61
2022/04/02 00:26:08;;;;;;;10.88;4.63;;;;;;;3.20;65.03;100956.81;5070895;28;20055;-62
2022/04/02 00:28:38;;;;;;;12.80;4.70;;;;;;;3.15;65.06;100954.88;5077575;28;20048;-63
2022/04/02 00:31:10;;;;;;;9.18;4.45;;;;;;;2.94;64.50;100960.38;5076596;28;20044;-60
2022/04/02 00:33:39;;;;;;;11.60;4.20;;;;;;;3.07;64.26;100943.63;5076087;28;20446;-61
2022/04/02 00:36:06;;;;;;;10.70;4.22;;;;;;;3.08;62.98;100951.56;5073883;28;20055;-61
2022/04/02 00:38:34;;;;;;;9.63;4.03;;;;;;;2.96;63.17;100941.91;5074809;28;20053;-62
2022/04/02 00:41:02;;;;;;;8.30;4.35;;;;;;;3.07;62.61;100943.63;5077562;28;20051;-56
2022/04/02 00:43:42;;;;;;;11.45;4.30;;;;;;;3.25;62.01;100941.34;5066975;28;20372;-60
2022/04/02 00:46:10;;;;;;;;;;;;;;;3.11;61.47;100944.75;5076306;28;20057;-63
2022/04/02 00:48:38;;;;;;;8.27;3.78;;;;;;;3.00;61.60;100940.31;5059300;28;19920;-63
2022/04/02 00:51:07;;;;;;;10.10;3.30;;;;;;;3.06;60.96;100944.72;5092924;28;20060;-63
2022/04/02 00:53:45;;;;;;;8.07;3.65;;;;;;;3.08;60.92;100946.13;5093215;28;20045;-56
2022/04/02 00:56:14;;;;;;;9.43;3.50;;;;;;;3.00;61.46;100940.31;5075401;28;20553;-56
2022/04/02 00:58:42;;;;;;;15.05;3.80;;;;;;;2.98;60.68;100940.56;5073322;28;20056;-56
2022/04/02 01:01:14;;;;;;;7.72;3.85;;;;;;;3.03;60.15;100937.09;5067432;28;20049;-58
2022/04/02 01:03:44;;;;;;;9.25;3.53;;;;;;;3.02;60.12;100944.41;5070343;28;20045;-59
2022/04/02 01:06:12;;;;;;;10.68;3.33;;;;;;;3.05;60.13;100970.31;5075264;28;20056;-62
2022/04/02 01:08:40;;;;;;;12.27;4.18;;;;;;;2.92;59.73;100940.78;5075543;28;20052;-62
2022/04/02 01:11:09;;;;;;;10.05;3.40;;;;;;;3.00;59.71;100943.03;5074748;28;20044;-58
2022/04/02 01:13:43;;;;;;;9.57;3.50;;;;;;;2.89;58.83;100946.75;5075484;28;20048;-57
2022/04/02 01:16:10;;;;;;;7.93;2.90;;;;;;;2.92;58.90;100938.88;5075773;28;20048;-64
2022/04/02 01:18:41;;;;;;;9.15;3.38;;;;;;;2.91;59.11;100936.44;5061973;28;20047;-62
2022/04/02 01:21:11;;;;;;;7.07;3.10;;;;;;;2.87;59.35;100932.56;5075457;28;20045;-63
2022/04/02 01:23:44;;;;;;;6.60;3.45;;;;;;;2.81;59.47;100942.56;5092121;28;20071;-62
2022/04/02 01:26:18;;;;;;;8.00;3.45;;;;;;;2.93;58.92;100937.78;5073511;28;20056;-62
2022/04/02 01:28:53;;;;;;;8.82;3.00;;;;;;;2.98;58.77;100934.31;5092169;28;20051;-55
2022/04/02 01:31:28;;;;;;;8.95;3.58;;;;;;;2.85;58.88;100943.72;5075196;28;20051;-56
2022/04/02 01:33:58;;;;;;;;;;;;;;;2.73;59.27;100934.06;5070815;28;20049;-55
2022/04/02 01:36:29;;;;;;;8.13;3.15;;;;;;;2.74;59.14;100932.97;5073836;28;19920;-59
2022/04/02 01:39:07;;;;;;;7.57;2.80;;;;;;;2.82;59.12;100952.41;5069768;28;20044;-55
2022/04/02 01:41:34;;;;;;;8.68;3.00;;;;;;;2.82;58.85;100946.13;5088738;28;20060;-55
2022/04/02 01:44:02;;;;;;;7.53;3.15;;;;;;;2.72;58.73;100946.84;5053832;28;20052;-57
2022/04/02 01:46:30;;;;;;;7.68;2.88;;;;;;;2.77;59.43;100959.69;5070806;28;20060;-62
2022/04/02 01:48:57;;;;;;;12.32;3.15;;;;;;;2.75;58.97;100957.22;5067011;28;20048;-56
2022/04/02 01:51:24;;;;;;;10.18;2.88;;;;;;;2.86;59.15;100948.06;5074646;28;20427;-59
2022/04/02 01:53:52;;;;;;;10.73;3.35;;;;;;;2.96;58.57;100942.75;5076003;28;20067;-58
2022/04/02 01:56:19;;;;;;;9.30;3.13;;;;;;;2.79;59.04;100952.88;5077871;28;20056;-57
2022/04/02 01:58:50;;;;;;;8.40;3.38;;;;;;;2.69;59.29;100957.41;5069354;28;20060;-57
2022/04/02 02:01:22;;;;;;;10.68;3.63;;;;;;;2.83;59.37;100956.75;5073452;28;20044;-55
2022/04/02 02:03:50;;;;;;;7.47;3.13;;;;;;;2.71;59.16;100964.25;5091383;28;20413;-57
2022/04/02 02:06:17;;;;;;;7.15;3.08;;;;;;;2.61;59.51;100960.59;5074349;28;20052;-58
2022/04/02 02:08:48;;;;;;;9.70;3.30;;;;;;;2.68;59.33;100966.66;5058559;28;20056;-57
2022/04/02 02:11:35;;;;;;;6.90;3.10;;;;;;;2.66;59.13;100974.22;5073960;28;20052;-57
2022/04/02 02:14:10;;;;;;;9.25;3.50;;;;;;;2.66;59.22;100971.50;5074080;28;20140;-56
2022/04/02 02:16:41;;;;;;;7.80;3.20;;;;;;;2.68;59.38;100974.81;5055135;28;20049;-57
2022/04/02 02:19:08;;;;;;;12.38;3.40;;;;;;;2.64;59.84;100974.50;5072610;28;20048;-59
2022/04/02 02:21:37;;;;;;;9.13;3.88;;;;;;;2.53;59.70;100974.66;5074407;28;20048;-59
2022/04/02 02:24:05;;;;;;;7.95;3.25;;;;;;;2.61;59.75;100971.47;5074759;28;20045;-58
2022/04/02 02:26:34;;;;;;;8.70;3.35;;;;;;;2.69;60.13;100968.28;5088000;28;20048;-59
2022/04/02 02:29:05;;;;;;;8.15;3.60;;;;;;;2.53;60.48;100963.78;5027842;28;20060;-57
2022/04/02 02:31:36;;;;;;;9.85;3.85;;;;;;;2.56;60.20;100964.09;5074079;28;20048;-57
2022/04/02 02:36:57;;;;;;;8.35;3.70;;;;;;;2.24;60.96;100977.56;5077890;28;20040;-57
2022/04/02 02:39:25;;;;;;;9.70;4.45;;;;;;;2.28;61.17;100984.09;5065070;28;20434;-58
2022/04/02 02:42:09;;;;;;;8.20;3.78;;;;;;;2.13;61.22;100996.69;5073946;28;20526;-55
2022/04/02 02:44:44;;;;;;;10.18;3.60;;;;;;;2.15;61.92;100978.22;5049766;28;20114;-58
2022/04/02 02:47:17;;;;;;;13.48;3.83;;;;;;;2.06;61.61;100990.59;5056289;28;20057;-57
2022/04/02 02:49:45;;;;;;;10.30;3.95;;;;;;;2.13;62.25;100983.91;5047607;28;20059;-57
2022/04/02 02:52:19;;;;;;;7.82;3.80;;;;;;;2.05;61.78;101000.66;5070602;28;20056;-56
2022/04/02 02:54:47;;;;;;;11.25;3.88;;;;;;;2.19;61.99;100985.66;5073276;28;20436;-63
2022/04/02 02:57:15;;;;;;;10.80;5.05;;;;;;;2.11;62.07;100994.22;5057385;28;20041;-61
2022/04/02 02:59:42;;;;;;;10.05;4.00;;;;;;;2.11;61.95;100991.50;5075084;28;20052;-57
2022/04/02 03:02:13;;;;;;;8.90;3.70;;;;;;;1.95;62.44;101003.22;5073788;28;20072;-58
2022/04/02 03:04:44;;;;;;;7.05;3.75;;;;;;;1.95;63.24;101011.38;5036746;28;20057;-61
2022/04/02 03:07:19;;;;;;;7.78;4.05;;;;;;;1.97;63.28;100994.84;5057544;28;20541;-58
2022/04/02 03:09:47;;;;;;;11.43;4.72;;;;;;;1.96;63.31;101002.16;5067541;28;20048;-58
2022/04/02 03:12:16;;;;;;;9.82;3.67;;;;;;;2.00;62.92;101007.91;5073576;28;20045;-59
2022/04/02 03:14:44;;;;;;;8.25;3.80;;;;;;;1.94;63.65;101019.78;5073456;28;20060;-58
2022/04/02 03:17:11;;;;;;;10.38;4.20;;;;;;;2.02;63.04;101005.78;5066969;28;20051;-61
2022/04/02 03:19:40;;;;;;;7.35;3.67;;;;;;;2.05;63.11;101005.25;5073211;28;20048;-56
2022/04/02 03:22:08;;;;;;;8.43;3.95;;;;;;;1.95;62.93;101002.41;5073279;28;20056;-59
2022/04/02 03:24:36;;;;;;;9.40;3.95;;;;;;;1.96;63.18;101006.75;5055718;28;20060;-55
2022/04/02 03:27:06;;;;;;;10.75;4.00;;;;;;;2.05;63.39;101002.56;5073552;28;20044;-59
2022/04/02 03:29:41;;;;;;;10.07;4.20;;;;;;;1.93;63.59;101018.13;5055548;28;20045;-59
2022/04/02 03:32:13;;;;;;;7.55;3.60;;;;;;;2.10;63.43;101014.31;5069645;28;20052;-62
2022/04/02 03:34:41;;;;;;;8.55;3.88;;;;;;;1.85;63.88;101007.69;5073198;28;20056;-62
2022/04/02 03:37:09;;;;;;;8.93;4.35;;;;;;;1.81;63.69;101015.53;5090083;28;20053;-63
2022/04/02 03:39:40;;;;;;;9.30;4.47;;;;;;;1.76;64.31;101020.06;5059959;28;20049;-63
2022/04/02 03:42:09;;;;;;;9.45;3.88;;;;;;;1.88;63.91;101015.34;5065942;28;20057;-61
2022/04/02 03:44:38;;;;;;;12.85;4.47;;;;;;;1.82;63.67;101030.75;5065956;28;20381;-62
2022/04/02 03:47:09;;;;;;;9.45;3.90;;;;;;;1.86;64.09;101025.63;5083553;28;20051;-62
2022/04/02 03:49:51;;;;;;;10.50;4.15;;;;;;;1.69;64.43;101019.41;5073291;28;20063;-61
2022/04/02 03:52:32;;;;;;;9.38;3.88;;;;;;;1.78;64.42;101034.22;5076601;28;20052;-60
2022/04/02 03:55:11;;;;;;;8.68;3.85;;;;;;;1.75;64.78;101016.50;5075792;28;20044;-58
2022/04/02 03:57:41;;;;;;;10.65;4.60;;;;;;;1.89;64.41;101016.97;5072406;28;20045;-59
2022/04/02 04:00:11;;;;;;;12.90;5.03;;;;;;;1.85;64.24;101016.66;5072824;28;20040;-55
2022/04/02 04:02:46;;;;;;;8.95;4.30;;;;;;;1.73;64.95;101013.22;5083930;28;20056;-58
2022/04/02 04:05:19;;;;;;;8.18;3.80;;;;;;;1.85;64.60;101021.25;5074316;28;20056;-59
2022/04/02 04:07:47;;;;;;;10.02;4.50;;;;;;;1.69;64.64;101020.19;5071366;28;20495;-55
2022/04/02 04:10:16;;;;;;;9.52;4.47;;;;;;;1.70;64.92;101021.03;5039157;28;20055;-57
2022/04/02 04:12:48;;;;;;;8.93;4.03;;;;;;;1.82;64.62;101022.59;5068482;28;20502;-62
2022/04/02 04:15:16;;;;;;;10.80;4.55;;;;;;;1.66;64.97;101028.00;5049202;28;20078;-57
2022/04/02 04:17:45;;;;;;;12.75;4.60;;;;;;;1.79;64.95;101028.53;5072908;28;20044;-58
2022/04/02 04:20:14;;;;;;;12.15;5.13;;;;;;;1.76;64.88;101029.00;5057894;28;20051;-59
2022/04/02 04:22:41;;;;;;;11.15;4.57;;;;;;;1.93;64.97;101032.53;5070668;28;20059;-55
2022/04/02 04:25:12;;;;;;;11.82;4.20;;;;;;;1.86;64.67;101034.63;5085415;28;20048;-57
2022/04/02 04:27:43;;;;;;;12.15;4.43;;;;;;;1.75;65.23;101032.81;5069037;28;20055;-58
2022/04/02 04:30:13;;;;;;;10.25;4.35;;;;;;;1.93;64.19;101040.69;5076726;28;20047;-62
2022/04/02 04:32:41;;;;;;;11.82;4.63;;;;;;;1.79;65.04;101052.13;5076559;28;20063;-62
2022/04/02 04:35:10;;;;;;;11.45;4.28;;;;;;;1.65;65.37;101048.94;5076445;28;20048;-62
2022/04/02 04:37:37;;;;;;;8.27;4.40;;;;;;;1.64;65.14;101051.91;5042646;28;20048;-58
2022/04/02 04:40:19;;;;;;;7.53;4.45;;;;;;;1.64;65.49;101055.41;5071624;28;20037;-59
2022/04/02 04:42:47;;;;;;;8.60;4.15;;;;;;;1.75;65.53;101056.41;5075785;28;20056;-58
2022/04/02 04:45:18;;;;;;;12.65;4.55;;;;;;;1.56;65.91;101055.00;5071950;28;20562;-57
2022/04/02 04:47:49;;;;;;;10.85;5.32;;;;;;;1.61;65.88;101063.22;5079474;28;20045;-57
2022/04/02 04:50:20;;;;;;;10.15;4.90;;;;;;;1.77;65.23;101063.25;5075415;28;20059;-55
2022/04/02 04:52:53;;;;;;;10.93;4.50;;;;;;;1.58;65.42;101059.13;5062994;28;20068;-57
2022/04/02 04:55:21;;;;;;;11.37;4.53;;;;;;;1.63;66.17;101075.50;5077380;28;20052;-55
2022/04/02 04:57:49;;;;;;;13.35;5.05;;;;;;;1.66;65.80;101066.84;5058369;28;20674;-58
2022/04/02 05:00:24;;;;;;;14.63;5.38;;;;;;;1.52;65.81;101065.53;5058693;28;20052;-57
2022/04/02 05:02:52;;;;;;;10.82;4.65;;;;;;;1.61;65.95;101087.66;5072875;28;20053;-61
2022/04/02 05:05:33;;;;;;;10.07;4.80;;;;;;;1.55;66.15;101080.53;5055105;28;20056;-62
2022/04/02 05:08:06;;;;;;;10.02;4.70;;;;;;;1.52;66.04;101089.13;5042696;28;20071;-63
2022/04/02 05:10:35;;;;;;;11.07;4.82;;;;;;;1.48;66.28;101080.69;5056608;28;20053;-62
2022/04/02 05:13:04;;;;;;;10.55;4.90;;;;;;;1.57;65.83;101087.34;5051655;28;20055;-62
2022/04/02 05:15:31;;;;;;;9.95;4.63;;;;;;;1.48;65.93;101093.44;5069546;28;20071;-62
2022/04/02 05:18:01;;;;;;;11.30;4.75;;;;;;;1.46;65.95;101093.66;5075616;28;20496;-62
2022/04/02 05:20:30;;;;;;;15.38;5.55;;;;;;;1.56;65.83;101096.56;5058809;28;20051;-62
2022/04/02 05:22:58;;;;;;;8.77;4.60;;;;;;;1.67;65.24;101103.00;5075551;28;20047;-61
2022/04/02 05:25:26;;;;;;;9.38;4.60;;;;;;;1.54;65.82;101095.13;5075829;28;20063;-62
2022/04/02 05:27:55;;;;;;;8.70;4.60;;;;;;;1.58;65.83;101099.84;5075242;28;20064;-62
2022/04/02 05:30:22;;;;;;;10.48;5.00;;;;;;;1.51;65.63;101107.31;5058738;28;20060;-62
2022/04/02 05:32:50;;;;;;;11.55;5.03;;;;;;;1.62;65.47;101109.13;5075101;28;20048;-61
2022/04/02 05:35:18;;;;;;;14.00;4.47;;;;;;;1.58;65.50;101109.88;5074818;28;20067;-62
2022/04/02 05:37:46;;;;;;;9.43;4.78;;;;;;;1.68;65.58;101110.88;5075554;28;20052;-60
2022/04/02 05:40:15;;;;;;;11.30;4.53;;;;;;;1.60;65.63;101103.16;5072253;28;20064;-61
2022/04/02 05:42:45;;;;;;;11.68;4.68;;;;;;;1.61;65.71;101123.78;5075785;28;20052;-61
2022/04/02 05:45:14;;;;;;;9.38;4.30;;;;;;;1.51;66.04;101111.94;5072593;28;20060;-62
2022/04/02 05:47:47;;;;;;;8.27;4.43;;;;;;;1.67;65.33;101122.81;5074950;28;20056;-62
2022/04/02 05:50:15;;;;;;;11.45;5.10;;;;;;;1.69;64.97;101109.81;5075056;28;20056;-62
2022/04/02 05:53:03;;;;;;;12.40;4.38;;;;;;;1.51;65.72;101128.22;5076440;28;20373;-62
2022/04/02 05:55:31;;;;;;;13.05;4.57;;;;;;;1.47;65.84;101130.59;5052420;28;20563;-61
2022/04/02 05:57:58;;;;;;;13.05;5.40;;;;;;;1.39;66.03;101128.28;5068089;28;20060;-60
2022/04/02 06:00:26;;;;;;;8.27;4.35;;;;;;;1.39;66.34;101136.41;5062876;28;20049;-59
2022/04/02 06:03:01;;;;;;;20.88;5.43;;;;;;;1.44;65.87;101141.09;5090825;28;20055;-62
2022/04/02 06:05:28;;;;;;;11.02;4.80;;;;;;;1.54;65.79;101142.13;5088085;28;20515;-63
2022/04/02 06:07:56;;;;;;;13.05;5.28;;;;;;;1.53;65.81;101145.91;5069964;28;20080;-58
2022/04/02 06:10:23;;;;;;;10.77;4.78;;;;;;;1.63;65.25;101146.09;5075747;28;20052;-57
2022/04/02 06:12:51;;;;;;;10.18;4.50;;;;;;;1.65;65.16;101152.09;5075803;28;20480;-62
2022/04/02 06:15:20;;;;;;;9.85;4.43;;;;;;;1.83;64.64;101145.63;5081518;28;20057;-61
2022/04/02 06:17:47;;;;;;;8.80;4.10;;;;;;;1.88;64.21;101149.22;5057548;28;20059;-58
2022/04/02 06:20:14;;;;;;;7.93;4.25;;;;;;;1.90;64.88;101152.53;5073230;28;20056;-62
2022/04/02 06:22:42;;;;;;;15.80;4.45;;;;;;;1.85;64.85;101154.31;5070458;28;20048;-57
2022/04/02 06:25:10;;;;;;;10.38;4.68;;;;;;;2.08;64.75;101151.47;5090385;28;20048;-57
2022/04/02 06:27:44;;;;;;;10.98;5.07;;;;;;;1.92;64.58;101163.13;5079694;28;20048;-61
2022/04/02 06:30:13;;;;;;;13.63;5.07;;;;;;;2.01;64.71;101153.53;5075424;28;20067;-62
2022/04/02 06:32:41;;;;;;;19.05;4.20;;;;;;;1.87;65.00;101155.75;5075513;28;20040;-62
2022/04/02 06:35:09;;;;;;;9.07;4.40;;;;;;;1.75;65.34;101174.00;5046727;28;20044;-60
2022/04/02 06:37:39;;;;;;;15.77;4.40;;;;;;;1.78;65.55;101175.41;5075740;28;20585;-63
2022/04/02 06:40:12;;;;;;;14.90;5.60;;;;;;;2.00;65.33;101174.44;5067815;28;20053;-63
2022/04/02 06:42:39;;;;;;;9.45;5.57;;;;;;;2.01;65.13;101165.22;5065810;28;20048;-63
2022/04/02 06:45:15;;;;;;;12.35;4.57;;;;;;;1.96;65.47;101186.88;5075871;28;20064;-55
2022/04/02 06:47:44;;;;;;;9.40;3.97;;;;;;;1.86;65.21;101178.56;5074720;28;20056;-56
2022/04/02 06:50:13;;;;;;;14.10;4.30;;;;;;;1.90;65.47;101187.84;5072928;28;20048;-57
2022/04/02 06:52:42;;;;;;;14.93;4.53;;;;;;;1.94;65.46;101185.47;5063448;28;20051;-52
2022/04/02 06:55:11;;;;;;;14.43;4.15;;;;;;;2.16;64.98;101187.19;5075067;28;20294;-57
2022/04/02 06:57:46;;;;;;;16.73;4.28;;;;;;;2.10;64.28;101179.22;5075163;28;20051;-55
2022/04/02 07:00:15;;;;;;;11.57;5.05;;;;;;;1.92;65.14;101193.03;5073291;28;20056;-57
2022/04/02 07:02:42;;;;;;;13.15;4.63;;;;;;;2.06;65.18;101206.06;5074975;28;20543;-57
2022/04/02 07:05:10;;;;;;;9.13;4.47;;;;;;;2.02;65.10;101204.09;5074845;28;20052;-58
2022/04/02 07:07:38;;;;;;;9.88;4.13;;;;;;;2.07;65.41;101205.00;5074948;28;20044;-57
2022/04/02 07:10:06;;;;;;;12.80;4.30;;;;;;;2.16;65.08;101198.06;5074035;28;20079;-56
2022/04/02 07:12:35;;;;;;;11.25;4.07;;;;;;;2.12;65.17;101201.53;5074737;28;20056;-56
2022/04/02 07:15:03;;;;;;;13.63;4.40;;;;;;;2.29;64.58;101200.47;5074587;28;20060;-60
2022/04/02 07:17:31;;;;;;;12.15;4.45;;;;;;;2.18;64.92;101198.66;5068190;28;20613;-59
2022/04/02 07:20:00;;;;;;;8.68;4.35;;;;;;;2.36;64.11;101199.47;5077114;28;20056;-62
2022/04/02 07:22:27;;;;;;;17.83;4.32;;;;;;;2.43;63.59;101211.00;5071033;28;20040;-61
2022/04/02 07:24:56;;;;;;;12.63;4.03;;;;;;;2.75;63.04;101190.28;5074758;28;20411;-62
2022/04/02 07:27:27;;;;;;;13.77;4.27;;;;;;;2.62;62.02;101204.22;5074584;28;20068;-61
2022/04/02 07:29:56;;;;;;;10.30;4.43;;;;;;;2.79;61.41;101214.00;5074910;28;20053;-61
2022/04/02 07:32:23;;;;;;;9.57;3.33;;;;;;;2.88;60.32;101203.50;5070395;28;20401;-61
2022/04/02 07:34:50;;;;;;;8.98;4.70;;;;;;;3.04;60.49;101238.03;5074603;28;20503;-63
2022/04/02 07:37:49;;;;;;;9.57;4.10;;;;;;;3.02;60.10;101215.69;5073288;28;20051;-62
2022/04/02 07:40:25;;;;;;;8.77;3.72;;;;;;;3.09;58.62;101228.03;5074590;28;20056;-60
2022/04/02 07:43:09;;;;;;;7.07;3.08;;;;;;;2.92;58.04;101215.56;5073136;28;20484;-62
2022/04/02 07:45:41;;;;;;;;;;;;;;;2.88;58.78;101223.38;5064187;28;20479;-62
2022/04/02 07:48:12;;;;;;;7.85;3.30;;;;;;;2.94;58.05;101224.28;5073358;28;19920;-61
2022/04/02 07:50:45;;;;;;;8.20;3.80;;;;;;;2.99;58.49;101229.78;5059494;28;20051;-60
2022/04/02 07:53:23;;;;;;;8.82;3.22;;;;;;;3.12;58.22;101222.09;5070255;28;20048;-63
2022/04/02 07:55:55;;;;;;;6.95;3.05;;;;;;;3.39;57.53;101231.16;5053342;28;20388;-63
2022/04/02 07:58:32;;;;;;;8.18;3.88;;;;;;;3.35;57.35;101232.72;5075160;28;20067;-59
2022/04/02 08:01:04;;;;;;;10.05;4.10;;;;;;;3.52;57.54;101229.13;5077146;28;20048;-59
2022/04/02 08:03:35;;;;;;;11.68;3.63;;;;;;;3.49;57.64;101226.91;5073596;28;20095;-58
2022/04/02 08:06:03;;;;;;;9.73;4.63;;;;;;;3.60;57.18;101236.84;5064962;28;20054;-55
2022/04/02 08:08:30;;;;;;;10.27;4.07;;;;;;;3.41;57.18;101258.13;5077081;28;20051;-58
2022/04/02 08:10:58;;;;;;;11.23;4.53;;;;;;;3.29;57.31;101255.53;5076909;28;20051;-55
2022/04/02 08:13:28;;;;;;;9.48;3.70;;;;;;;3.43;57.35;101242.38;5075762;28;20045;-58
2022/04/02 08:15:57;;;;;;;8.63;3.90;;;;;;;3.36;56.87;101242.53;5058155;28;20049;-58
2022/04/02 08:18:28;;;;;;;13.75;3.78;;;;;;;3.42;57.01;101254.31;5070642;28;20056;-57
2022/04/02 08:20:56;;;;;;;8.55;3.58;;;;;;;3.44;56.25;101244.84;5064643;28;20056;-62
2022/04/02 08:23:29;;;;;;;12.50;3.63;;;;;;;3.40;54.63;101259.19;5077793;28;20049;-62
2022/04/02 08:26:27;;;;;;;7.63;3.53;;;;;;;3.41;55.72;101241.78;5077516;28;20052;-60
2022/04/02 08:29:02;;;;;;;7.18;3.67;;;;;;;3.62;54.52;101240.13;5076860;28;20048;-62
2022/04/02 08:32:04;;;;;;;11.55;3.67;;;;;;;3.76;54.38;101274.06;5077946;28;20040;-61
2022/04/02 08:34:56;;;;;;;8.60;3.53;;;;;;;3.83;53.67;101247.47;5077929;28;20056;-62
2022/04/02 08:38:01;;;;;;;9.95;3.78;;;;;;;4.03;53.90;101250.38;5056688;28;20064;-60
2022/04/02 08:40:53;;;;;;;9.55;3.55;;;;;;;4.22;53.33;101252.47;5070336;28;20055;-60
2022/04/02 08:43:51;;;;;;;8.60;3.53;;;;;;;4.15;52.30;101254.59;5072799;28;20053;-63
2022/04/02 08:46:43;;;;;;;7.35;3.22;;;;;;;4.07;51.42;101248.78;5075068;28;20060;-63
2022/04/02 08:49:24;;;;;;;7.20;3.30;;;;;;;4.26;50.67;101269.16;5076743;28;20055;-62
2022/04/02 08:52:17;;;;;;;7.00;3.08;;;;;;;4.19;50.14;101249.44;5075607;28;20048;-62
2022/04/02 08:54:50;;;;;;;8.60;2.70;;;;;;;4.20;49.34;101264.75;5075248;28;20048;-62
2022/04/02 08:57:20;;;;;;;6.95;2.53;;;;;;;4.14;49.12;101273.94;5087241;28;20430;-62
2022/04/02 08:59:51;;;;;;;;;;;;;;;4.01;49.52;101277.09;5078595;28;20052;-62
2022/04/02 09:02:36;;;;;;;9.40;3.42;;;;;;;4.00;49.79;101262.63;5076100;28;19920;-63
2022/04/02 09:05:10;;;;;;;5.68;2.72;;;;;;;4.26;49.17;101269.97;5076326;28;20059;-63
2022/04/02 09:07:46;;;;;;;8.90;2.47;;;;;;;4.25;49.40;101276.50;5070881;28;20063;-62
2022/04/02 09:10:17;;;;;;;7.97;3.38;;;;;;;4.22;49.24;101257.94;5062538;28;20064;-61
2022/04/02 09:13:29;;;;;;;6.22;2.97;;;;;;;4.33;49.52;101284.22;5076697;28;20056;-62
2022/04/02 09:16:04;;;;;;;6.68;2.72;;;;;;;4.17;48.55;101276.97;5051729;28;20048;-63
2022/04/02 09:18:37;;;;;;;7.45;2.70;;;;;;;4.30;48.84;101265.66;5061844;28;20056;-61
2022/04/02 09:21:23;;;;;;;8.40;2.58;;;;;;;4.29;49.48;101280.38;5075489;28;20460;-60
2022/04/02 09:24:22;;;;;;;8.32;2.90;;;;;;;4.25;48.45;101268.31;5086105;28;20040;-62
2022/04/02 09:27:18;;;;;;;7.22;2.80;;;;;;;4.42;48.61;101273.66;5075509;28;20040;-61
2022/04/02 09:29:54;;;;;;;8.48;2.92;;;;;;;4.62;48.41;101265.63;5076795;28;20067;-62
2022/04/02 09:32:59;;;;;;;8.15;2.90;;;;;;;4.47;47.16;101273.72;5076423;28;20056;-62
2022/04/02 09:35:32;;;;;;;5.60;2.70;;;;;;;4.83;47.32;101267.44;5067395;28;20056;-62
2022/04/02 09:38:32;;;;;;;6.88;2.80;;;;;;;5.00;46.71;101268.13;5057543;28;20052;-65
2022/04/02 09:41:16;;;;;;;9.07;3.08;;;;;;;5.07;47.69;101265.16;5051027;28;20049;-64
2022/04/02 09:43:55;;;;;;;10.02;3.10;;;;;;;5.11;47.71;101280.75;5061098;28;20045;-64
2022/04/02 09:46:57;;;;;;;5.90;2.80;;;;;;;5.05;45.71;101279.06;5050162;28;20060;-63
2022/04/02 09:49:40;;;;;;;5.90;2.58;;;;;;;5.21;43.52;101277.25;5074844;28;20487;-61
2022/04/02 09:52:08;;;;;;;9.90;2.70;;;;;;;5.02;43.86;101276.06;5062581;28;20053;-62
2022/04/02 09:54:42;;;;;;;7.32;2.45;;;;;;;5.17;43.56;101273.41;5072106;28;20542;-63
2022/04/02 09:57:36;;;;;;;7.68;2.83;;;;;;;5.27;43.73;101268.00;5075526;28;20057;-60
2022/04/02 10:00:07;;;;;;;5.97;2.88;;;;;;;5.59;46.36;101265.97;5064032;28;20072;-65
2022/04/02 10:03:03;;;;;;;10.88;3.03;;;;;;;5.85;45.37;101265.00;5075479;28;20052;-63
2022/04/02 10:05:57;;;;;;;9.15;3.28;;;;;;;5.32;45.63;101290.69;5072470;28;20060;-63
2022/04/02 10:08:55;;;;;;;7.40;2.67;;;;;;;5.08;45.97;101285.91;5064333;28;20052;-63
2022/04/02 10:11:28;;;;;;;7.22;2.92;;;;;;;5.08;46.02;101283.16;5050984;28;20535;-65
2022/04/02 10:14:00;;;;;;;6.18;3.13;;;;;;;4.98;44.74;101283.13;5066810;28;20060;-64
2022/04/02 10:16:29;;;;;;;5.75;2.50;;;;;;;5.10;44.75;101275.53;5058468;28;20408;-63
2022/04/02 10:18:58;;;;;;;5.25;2.85;;;;;;;5.18;42.48;101275.03;5073201;28;20048;-63
2022/04/02 10:21:32;;;;;;;7.68;2.80;;;;;;;5.12;42.37;101287.88;5063459;28;20134;-65
2022/04/02 10:24:07;;;;;;;7.57;2.60;;;;;;;5.45;42.08;101281.22;5069938;28;20057;-64
2022/04/02 10:26:39;;;;;;;8.73;2.65;;;;;;;5.29;41.11;101285.78;5063978;28;20044;-64
2022/04/02 10:29:12;;;;;;;8.70;3.05;;;;;;;5.31;42.12;101326.47;5063496;28;20061;-63
2022/04/02 10:31:54;;;;;;;7.63;2.83;;;;;;;5.39;42.55;101272.16;5050483;28;20044;-64
2022/04/02 10:34:51;;;;;;;7.13;2.60;;;;;;;5.23;41.69;101277.81;5072101;28;20045;-63
2022/04/02 10:37:20;;;;;;;9.75;2.47;;;;;;;5.14;41.35;101287.59;5075179;28;20048;-63
2022/04/02 10:40:18;;;;;;;7.40;2.33;;;;;;;5.08;41.39;101292.19;5075428;28;20048;-62
2022/04/02 10:42:55;;;;;;;7.05;2.70;;;;;;;5.43;40.73;101286.94;5069162;28;20060;-62
2022/04/02 10:45:24;;;;;;;5.68;2.40;;;;;;;5.41;39.52;101280.91;5075072;28;20048;-64
2022/04/02 10:48:13;;;;;;;10.20;2.65;;;;;;;5.77;39.30;101270.16;5074079;28;20067;-63
2022/04/02 10:50:42;;;;;;;8.70;2.45;;;;;;;6.00;39.81;101269.72;5072080;28;20059;-60
2022/04/02 10:53:11;;;;;;;6.10;2.33;;;;;;;6.00;38.45;101254.09;5075006;28;20040;-56
2022/04/02 10:55:45;;;;;;;5.78;2.33;;;;;;;6.50;38.93;101261.56;5070292;28;20049;-57
2022/04/02 10:58:14;;;;;;;7.20;2.38;;;;;;;6.75;38.69;101272.50;5065385;28;20053;-62
2022/04/02 11:00:45;;;;;;;6.07;2.58;;;;;;;5.95;39.58;101275.13;5068131;28;20048;-62
2022/04/02 11:03:32;;;;;;;6.93;2.95;;;;;;;5.65;40.72;101273.09;5065955;28;20044;-62
2022/04/02 11:06:00;;;;;;;4.45;2.40;;;;;;;5.53;40.71;101267.84;5069852;28;20051;-60
2022/04/02 11:08:31;;;;;;;8.00;3.53;;;;;;;5.42;41.11;101279.03;5069411;28;20053;-59
2022/04/02 11:10:59;;;;;;;7.55;3.55;;;;;;;5.59;41.51;101275.00;5062967;28;20056;-64
2022/04/02 11:13:32;;;;;;;5.97;2.50;;;;;;;5.61;40.55;101272.78;5047299;28;20056;-63
2022/04/02 11:16:00;;;;;;;4.60;2.65;;;;;;;5.43;41.08;101256.91;5071759;28;20056;-62
2022/04/02 11:18:28;;;;;;;6.22;2.65;;;;;;;5.85;40.61;101256.81;5086729;28;20060;-62
2022/04/02 11:21:03;;;;;;;5.75;2.70;;;;;;;5.73;39.50;101258.94;5072730;28;20059;-62
2022/04/02 11:23:47;;;;;;;6.40;2.13;;;;;;;5.82;39.55;101283.81;5064095;28;20048;-61
2022/04/02 11:26:19;;;;;;;7.32;2.95;;;;;;;5.78;39.26;101255.38;5065663;28;20060;-60
2022/04/02 11:28:52;;;;;;;6.03;2.40;;;;;;;5.70;37.99;101265.72;5072786;28;20048;-62
2022/04/02 11:31:29;;;;;;;4.93;2.47;;;;;;;5.83;38.22;101258.16;5090932;28;20052;-63
2022/04/02 11:33:58;;;;;;;8.07;2.30;;;;;;;6.15;37.77;101259.63;5078206;28;20048;-64
2022/04/02 11:36:42;;;;;;;7.07;2.50;;;;;;;6.49;37.02;101281.78;5086041;28;20080;-63
2022/04/02 11:39:30;;;;;;;6.15;2.38;;;;;;;6.32;37.17;101262.91;5078749;28;20075;-63
2022/04/02 11:42:00;;;;;;;7.35;2.63;;;;;;;6.29;38.40;101260.75;5053347;28;20053;-62
2022/04/02 11:44:36;;;;;;;5.78;2.63;;;;;;;6.37;37.73;101271.13;5074541;28;20040;-63
2022/04/02 11:47:06;;;;;;;5.13;2.60;;;;;;;6.09;38.60;101257.13;5071486;28;20041;-62
2022/04/02 11:49:37;;;;;;;5.95;2.60;;;;;;;6.02;37.94;101267.50;5077885;28;20059;-62
2022/04/02 11:52:05;;;;;;;5.13;2.40;;;;;;;5.95;37.07;101273.22;5076458;28;20055;-63
2022/04/02 11:54:39;;;;;;;4.55;2.20;;;;;;;5.70;36.28;101276.66;5075077;28;20052;-63
2022/04/02 11:57:09;;;;;;;5.18;2.05;;;;;;;5.89;36.21;101266.13;5064847;28;20059;-62
2022/04/02 11:59:37;;;;;;;8.13;1.92;;;;;;;5.97;36.02;101271.06;5077793;28;20049;-64
2022/04/02 12:02:04;;;;;;;8.75;2.58;;;;;;;5.91;35.47;101272.13;5072889;28;20041;-64